logo
Rechercher aéroport 
image banner adimage banner adimage banner ad
image banner ad

LODV - Lkh Weststeiermark Standort Voitsberg Lkh

Situé à District Voitsberg, Austria

ICAO - , IATA -

Données fournies par Airmate  

Information générale

Coordonnées: N47°3'8" E15°8'22"
Élévation : 1322 feet MSL.
 
Voir autres Aéroports à Styria

Données opérationnelles

Special qualification required
Heure actuelle UTC:
Heure actuelle locale:
Météo à : LOWG - Graz ( 24 km )
METAR: LOWG 281150Z AUTO 19004KT 150V240 9999 NCD 11/07 Q1018 NOSIG
TAF: TAF LOWG 281115Z 2812/2912 VRB03KT 9999 FEW040 TX14/2814Z TN07/2905Z TEMPO 2900/2909 1200 BCFG
Voir NOTAMs / SUP AIP / TFR affectant cet aéroport [VIEW]
Fréquences de communication: [VIEW]

Pistes:

Coordonnées de l'aéroport

Adresse: District Voitsberg Austria

Vue satellite de LODV